SAS031 EKCH-ESSA
Flight info
| Callsign | SAS031 |
|---|---|
| Flight time | 0h 54m |
| Altitude | 39000 |
| Route | KEMAX DCT RASMU DCT DETSO N873 ARS T317 ELTOK |
| Aircraft | A20N/M-SDE3FGIJ1RWXY/ALB1 |
Departure
| Time | 2026-05-04 18:20 |
|---|---|
| Airport | Copenhagen Kastrup Airport (EKCH) |
Arrival
| Time | 2026-05-04 19:15 |
|---|---|
| Airport | Stockholm-Arlanda Airport (ESSA) |
| Time | Latitude | Longitude | Altitude | Speed | Heading |
|---|---|---|---|---|---|
| 2026-05-04 17:36 | 55.62714 | 12.65324 | 16 ft | 0 kts | 17° |
| 2026-05-04 18:05 | 55.62709 | 12.65321 | 16 ft | 3 kts | 17° |
| 2026-05-04 18:05 | 55.62691 | 12.65313 | 16 ft | 3 kts | 355° |
| 2026-05-04 18:05 | 55.62672 | 12.65316 | 18 ft | 3 kts | 355° |
| 2026-05-04 18:06 | 55.62635 | 12.65318 | 16 ft | 3 kts | 359° |
| 2026-05-04 18:06 | 55.62616 | 12.65319 | 16 ft | 3 kts | 358° |
| 2026-05-04 18:06 | 55.62598 | 12.65320 | 18 ft | 3 kts | 358° |
| 2026-05-04 18:07 | 55.62592 | 12.65321 | 16 ft | 0 kts | 358° |
| 2026-05-04 18:11 | 55.62594 | 12.65320 | 16 ft | 3 kts | 358° |
| 2026-05-04 18:11 | 55.62645 | 12.65283 | 16 ft | 11 kts | 300° |
| 2026-05-04 18:11 | 55.62599 | 12.65197 | 18 ft | 12 kts | 175° |
| 2026-05-04 18:11 | 55.62518 | 12.65199 | 17 ft | 11 kts | 180° |
| 2026-05-04 18:12 | 55.62440 | 12.65202 | 16 ft | 11 kts | 178° |
| 2026-05-04 18:12 | 55.62362 | 12.65205 | 16 ft | 11 kts | 178° |
| 2026-05-04 18:12 | 55.62292 | 12.65179 | 16 ft | 10 kts | 222° |
| 2026-05-04 18:12 | 55.62278 | 12.65074 | 16 ft | 8 kts | 290° |
| 2026-05-04 18:13 | 55.62308 | 12.64986 | 18 ft | 10 kts | 302° |
| 2026-05-04 18:13 | 55.62334 | 12.64913 | 18 ft | 10 kts | 303° |
| 2026-05-04 18:13 | 55.62395 | 12.64712 | 16 ft | 7 kts | 254° |
| 2026-05-04 18:14 | 55.62361 | 12.64674 | 16 ft | 6 kts | 196° |
| 2026-05-04 18:14 | 55.62309 | 12.64630 | 18 ft | 9 kts | 222° |
| 2026-05-04 18:14 | 55.62296 | 12.64595 | 16 ft | 0 kts | 242° |
| 2026-05-04 18:15 | 55.62292 | 12.64583 | 16 ft | 0 kts | 243° |
| 2026-05-04 18:16 | 55.62291 | 12.64577 | 16 ft | 5 kts | 243° |
| 2026-05-04 18:16 | 55.62252 | 12.64429 | 16 ft | 18 kts | 242° |
| 2026-05-04 18:16 | 55.62150 | 12.64307 | 18 ft | 17 kts | 206° |
| 2026-05-04 18:17 | 55.61954 | 12.64141 | 19 ft | 15 kts | 206° |
| 2026-05-04 18:17 | 55.61863 | 12.64071 | 17 ft | 14 kts | 187° |
| 2026-05-04 18:17 | 55.61705 | 12.64087 | 18 ft | 15 kts | 176° |
| 2026-05-04 18:18 | 55.61616 | 12.64060 | 22 ft | 11 kts | 220° |
| 2026-05-04 18:18 | 55.61607 | 12.64047 | 20 ft | 0 kts | 220° |
| 2026-05-04 18:18 | 55.61607 | 12.64046 | 20 ft | 1 kts | 220° |
| 2026-05-04 18:18 | 55.61599 | 12.64034 | 20 ft | 2 kts | 220° |
| 2026-05-04 18:19 | 55.61588 | 12.64018 | 20 ft | 1 kts | 220° |
| 2026-05-04 18:19 | 55.61539 | 12.63944 | 19 ft | 21 kts | 220° |
| 2026-05-04 18:19 | 55.61343 | 12.63637 | 21 ft | 64 kts | 221° |
| 2026-05-04 18:20 | 55.60844 | 12.62858 | 18 ft | 125 kts | 221° |
| 2026-05-04 18:20 | 55.60051 | 12.61645 | 30 ft | 173 kts | 226° |
| 2026-05-04 18:20 | 55.59126 | 12.60193 | 505 ft | 184 kts | 225° |
| 2026-05-04 18:20 | 55.58155 | 12.58657 | 1270 ft | 188 kts | 224° |
| 2026-05-04 18:21 | 55.57114 | 12.57064 | 1813 ft | 205 kts | 223° |
| 2026-05-04 18:21 | 55.55863 | 12.55671 | 2234 ft | 223 kts | 206° |
| 2026-05-04 18:21 | 55.54360 | 12.54706 | 2651 ft | 236 kts | 201° |
| 2026-05-04 18:21 | 55.52762 | 12.53806 | 3382 ft | 241 kts | 200° |
| 2026-05-04 18:22 | 55.51119 | 12.52864 | 4123 ft | 256 kts | 201° |
| 2026-05-04 18:22 | 55.49400 | 12.51846 | 4963 ft | 264 kts | 199° |
| 2026-05-04 18:22 | 55.47544 | 12.51697 | 5886 ft | 274 kts | 172° |
| 2026-05-04 18:22 | 55.45818 | 12.53238 | 6801 ft | 286 kts | 139° |
| 2026-05-04 18:23 | 55.44777 | 12.56232 | 7667 ft | 296 kts | 106° |
| 2026-05-04 18:23 | 55.44743 | 12.59837 | 8523 ft | 300 kts | 73° |
| 2026-05-04 18:23 | 55.45761 | 12.63004 | 9397 ft | 298 kts | 40° |
| 2026-05-04 18:23 | 55.47474 | 12.65025 | 10224 ft | 299 kts | 22° |
| 2026-05-04 18:24 | 55.49418 | 12.66596 | 10706 ft | 316 kts | 20° |
| 2026-05-04 18:24 | 55.51432 | 12.68418 | 11183 ft | 336 kts | 27° |
| 2026-05-04 18:24 | 55.53437 | 12.70766 | 11678 ft | 355 kts | 32° |
| 2026-05-04 18:24 | 55.55423 | 12.73429 | 12377 ft | 364 kts | 34° |
| 2026-05-04 18:25 | 55.57467 | 12.76179 | 13187 ft | 371 kts | 33° |
| 2026-05-04 18:25 | 55.59579 | 12.78854 | 13985 ft | 376 kts | 31° |
| 2026-05-04 18:25 | 55.61754 | 12.81482 | 14777 ft | 381 kts | 30° |
| 2026-05-04 18:25 | 55.63963 | 12.84136 | 15626 ft | 385 kts | 30° |
| 2026-05-04 18:26 | 55.66151 | 12.86816 | 16461 ft | 390 kts | 31° |
| 2026-05-04 18:26 | 55.68409 | 12.89632 | 17299 ft | 395 kts | 31° |
| 2026-05-04 18:26 | 55.70664 | 12.92462 | 18135 ft | 399 kts | 31° |
| 2026-05-04 18:26 | 55.72951 | 12.95325 | 18841 ft | 404 kts | 31° |
| 2026-05-04 18:27 | 55.75231 | 12.98165 | 19556 ft | 407 kts | 31° |
| 2026-05-04 18:27 | 55.77564 | 13.01066 | 20276 ft | 411 kts | 31° |
| 2026-05-04 18:27 | 55.79943 | 13.04034 | 20982 ft | 415 kts | 31° |
| 2026-05-04 18:27 | 55.82286 | 13.06967 | 21667 ft | 418 kts | 31° |
| 2026-05-04 18:28 | 55.84707 | 13.10007 | 22362 ft | 422 kts | 32° |
| 2026-05-04 18:28 | 55.87114 | 13.13033 | 23034 ft | 426 kts | 32° |
| 2026-05-04 18:28 | 55.89546 | 13.16076 | 23679 ft | 429 kts | 29° |
| 2026-05-04 18:28 | 55.92205 | 13.18345 | 24254 ft | 422 kts | 12° |
| 2026-05-04 18:29 | 55.95011 | 13.19671 | 24752 ft | 423 kts | 9° |
| 2026-05-04 18:29 | 55.97930 | 13.20845 | 25271 ft | 425 kts | 7° |
| 2026-05-04 18:29 | 56.00814 | 13.21853 | 25760 ft | 428 kts | 6° |
| 2026-05-04 18:29 | 56.03753 | 13.22852 | 26244 ft | 432 kts | 7° |
| 2026-05-04 18:30 | 56.09679 | 13.25068 | 27144 ft | 438 kts | 8° |
| 2026-05-04 18:30 | 56.12669 | 13.26240 | 27581 ft | 441 kts | 8° |
| 2026-05-04 18:30 | 56.15676 | 13.27401 | 28028 ft | 444 kts | 8° |
| 2026-05-04 18:31 | 56.18703 | 13.28542 | 28456 ft | 446 kts | 8° |
| 2026-05-04 18:31 | 56.21761 | 13.29686 | 28865 ft | 449 kts | 8° |
| 2026-05-04 18:31 | 56.24824 | 13.30837 | 29222 ft | 451 kts | 8° |
| 2026-05-04 18:31 | 56.27910 | 13.32014 | 29584 ft | 454 kts | 8° |
| 2026-05-04 18:32 | 56.31008 | 13.33204 | 29951 ft | 456 kts | 8° |
| 2026-05-04 18:32 | 56.34117 | 13.34400 | 30330 ft | 457 kts | 8° |
| 2026-05-04 18:32 | 56.37227 | 13.35595 | 30751 ft | 456 kts | 8° |
| 2026-05-04 18:32 | 56.40327 | 13.36783 | 31207 ft | 455 kts | 8° |
| 2026-05-04 18:33 | 56.43422 | 13.37969 | 31640 ft | 454 kts | 7° |
| 2026-05-04 18:33 | 56.46505 | 13.39154 | 32075 ft | 452 kts | 7° |
| 2026-05-04 18:33 | 56.49584 | 13.40340 | 32514 ft | 451 kts | 7° |
| 2026-05-04 18:33 | 56.52649 | 13.41525 | 32949 ft | 450 kts | 7° |
| 2026-05-04 18:34 | 56.55708 | 13.42709 | 33386 ft | 449 kts | 7° |
| 2026-05-04 18:34 | 56.58762 | 13.43891 | 33807 ft | 448 kts | 7° |
| 2026-05-04 18:34 | 56.61809 | 13.45072 | 34150 ft | 448 kts | 7° |
| 2026-05-04 18:34 | 56.64857 | 13.46256 | 34464 ft | 448 kts | 7° |
| 2026-05-04 18:35 | 56.67908 | 13.47443 | 34749 ft | 449 kts | 7° |
| 2026-05-04 18:35 | 56.70964 | 13.48634 | 35045 ft | 449 kts | 7° |
| 2026-05-04 18:35 | 56.74029 | 13.49833 | 35347 ft | 450 kts | 7° |
| 2026-05-04 18:35 | 56.77094 | 13.51033 | 35648 ft | 450 kts | 7° |
| 2026-05-04 18:36 | 56.80158 | 13.52234 | 35960 ft | 450 kts | 7° |
| 2026-05-04 18:36 | 56.83187 | 13.53424 | 36263 ft | 450 kts | 7° |
| 2026-05-04 18:36 | 56.86288 | 13.54643 | 36560 ft | 450 kts | 7° |
| 2026-05-04 18:36 | 56.89349 | 13.55848 | 36859 ft | 450 kts | 7° |
| 2026-05-04 18:37 | 56.92389 | 13.57254 | 37147 ft | 456 kts | 16° |
| 2026-05-04 18:37 | 56.95278 | 13.59719 | 37501 ft | 459 kts | 21° |
| 2026-05-04 18:37 | 56.98133 | 13.62384 | 37730 ft | 461 kts | 23° |
| 2026-05-04 18:37 | 57.00956 | 13.65180 | 37996 ft | 462 kts | 24° |
| 2026-05-04 18:38 | 57.03765 | 13.68047 | 38259 ft | 462 kts | 24° |
| 2026-05-04 18:38 | 57.06581 | 13.70897 | 38511 ft | 462 kts | 24° |
| 2026-05-04 18:38 | 57.09410 | 13.73698 | 38729 ft | 462 kts | 24° |
| 2026-05-04 18:38 | 57.12250 | 13.76475 | 38911 ft | 462 kts | 23° |
| 2026-05-04 18:39 | 57.15114 | 13.79282 | 38899 ft | 467 kts | 24° |
| 2026-05-04 18:39 | 57.20817 | 13.84971 | 38908 ft | 468 kts | 24° |
| 2026-05-04 18:40 | 57.26531 | 13.90706 | 38889 ft | 464 kts | 24° |
| 2026-05-04 18:40 | 57.32203 | 13.96377 | 38881 ft | 462 kts | 24° |
| 2026-05-04 18:41 | 57.37843 | 14.02048 | 38876 ft | 464 kts | 24° |
| 2026-05-04 18:41 | 57.43509 | 14.07777 | 38895 ft | 464 kts | 24° |
| 2026-05-04 18:42 | 57.49173 | 14.13514 | 38876 ft | 463 kts | 24° |
| 2026-05-04 18:42 | 57.54836 | 14.19273 | 38872 ft | 463 kts | 24° |
| 2026-05-04 18:43 | 57.60505 | 14.25059 | 38865 ft | 463 kts | 24° |
| 2026-05-04 18:43 | 57.66158 | 14.30849 | 38846 ft | 463 kts | 24° |
| 2026-05-04 18:44 | 57.71816 | 14.36665 | 38856 ft | 464 kts | 24° |
| 2026-05-04 18:44 | 57.77473 | 14.42502 | 38849 ft | 463 kts | 24° |
| 2026-05-04 18:45 | 57.82169 | 14.47360 | 38853 ft | 464 kts | 24° |
| 2026-05-04 18:45 | 57.88760 | 14.54210 | 38835 ft | 463 kts | 24° |
| 2026-05-04 18:46 | 57.93452 | 14.59099 | 38837 ft | 464 kts | 24° |
| 2026-05-04 18:46 | 57.99100 | 14.65006 | 38832 ft | 463 kts | 24° |
| 2026-05-04 18:47 | 58.04742 | 14.70935 | 38837 ft | 463 kts | 24° |
| 2026-05-04 18:47 | 58.10382 | 14.76876 | 38831 ft | 463 kts | 24° |
| 2026-05-04 18:48 | 58.15978 | 14.82793 | 38829 ft | 463 kts | 24° |
| 2026-05-04 18:48 | 58.21611 | 14.88773 | 38834 ft | 465 kts | 24° |
| 2026-05-04 18:49 | 58.27261 | 14.94791 | 38826 ft | 465 kts | 24° |
| 2026-05-04 18:49 | 58.32902 | 15.00822 | 38817 ft | 465 kts | 24° |
| 2026-05-04 18:50 | 58.38538 | 15.06871 | 38796 ft | 465 kts | 24° |
| 2026-05-04 18:50 | 58.44168 | 15.12936 | 38828 ft | 465 kts | 24° |
| 2026-05-04 18:51 | 58.49822 | 15.19048 | 38809 ft | 467 kts | 24° |
| 2026-05-04 18:51 | 58.55493 | 15.25207 | 38808 ft | 467 kts | 24° |
| 2026-05-04 18:52 | 58.61147 | 15.31362 | 38801 ft | 468 kts | 24° |
| 2026-05-04 18:52 | 58.66805 | 15.37547 | 38798 ft | 467 kts | 24° |
| 2026-05-04 18:53 | 58.72461 | 15.43756 | 38804 ft | 469 kts | 24° |
| 2026-05-04 18:53 | 58.78129 | 15.50002 | 38791 ft | 470 kts | 24° |
| 2026-05-04 18:53 | 58.80973 | 15.53143 | 38659 ft | 473 kts | 24° |
| 2026-05-04 18:54 | 58.83882 | 15.56351 | 37660 ft | 490 kts | 24° |
| 2026-05-04 18:54 | 58.86842 | 15.59631 | 36959 ft | 490 kts | 24° |
| 2026-05-04 18:54 | 58.89811 | 15.62939 | 36155 ft | 493 kts | 24° |
| 2026-05-04 18:54 | 58.92794 | 15.66269 | 35349 ft | 496 kts | 24° |
| 2026-05-04 18:55 | 58.95798 | 15.69622 | 34526 ft | 500 kts | 24° |
| 2026-05-04 18:55 | 59.01832 | 15.76374 | 32560 ft | 498 kts | 24° |
| 2026-05-04 18:55 | 59.04811 | 15.79730 | 31942 ft | 487 kts | 24° |
| 2026-05-04 18:56 | 59.07718 | 15.83015 | 31352 ft | 477 kts | 23° |
| 2026-05-04 18:56 | 59.10563 | 15.86223 | 30743 ft | 468 kts | 23° |
| 2026-05-04 18:56 | 59.13357 | 15.89369 | 30146 ft | 461 kts | 23° |
| 2026-05-04 18:56 | 59.16111 | 15.92476 | 29504 ft | 454 kts | 23° |
| 2026-05-04 18:57 | 59.18825 | 15.95551 | 28878 ft | 447 kts | 23° |
| 2026-05-04 18:57 | 59.21491 | 15.98585 | 28295 ft | 441 kts | 22° |
| 2026-05-04 18:57 | 59.24135 | 16.01596 | 27705 ft | 438 kts | 22° |
| 2026-05-04 18:57 | 59.26776 | 16.04597 | 27099 ft | 439 kts | 22° |
| 2026-05-04 18:58 | 59.29428 | 16.07613 | 26488 ft | 441 kts | 22° |
| 2026-05-04 18:58 | 59.32089 | 16.10653 | 25866 ft | 443 kts | 22° |
| 2026-05-04 18:58 | 59.34752 | 16.13711 | 25248 ft | 445 kts | 22° |
| 2026-05-04 18:58 | 59.37434 | 16.16799 | 24615 ft | 447 kts | 22° |
| 2026-05-04 18:59 | 59.40095 | 16.20021 | 23950 ft | 455 kts | 28° |
| 2026-05-04 18:59 | 59.42459 | 16.24279 | 23293 ft | 470 kts | 43° |
| 2026-05-04 18:59 | 59.44548 | 16.29265 | 22604 ft | 473 kts | 45° |
| 2026-05-04 18:59 | 59.46585 | 16.34374 | 21837 ft | 475 kts | 46° |
| 2026-05-04 19:00 | 59.48564 | 16.39486 | 21155 ft | 475 kts | 47° |
| 2026-05-04 19:00 | 59.50568 | 16.44659 | 20421 ft | 474 kts | 47° |
| 2026-05-04 19:00 | 59.52585 | 16.49781 | 19749 ft | 472 kts | 46° |
| 2026-05-04 19:00 | 59.54615 | 16.54875 | 19042 ft | 471 kts | 46° |
| 2026-05-04 19:01 | 59.56633 | 16.59944 | 18333 ft | 470 kts | 46° |
| 2026-05-04 19:01 | 59.58760 | 16.64790 | 17536 ft | 462 kts | 37° |
| 2026-05-04 19:01 | 59.61233 | 16.68685 | 16854 ft | 448 kts | 30° |
| 2026-05-04 19:01 | 59.63698 | 16.72303 | 16146 ft | 434 kts | 30° |
| 2026-05-04 19:02 | 59.66108 | 16.75738 | 15483 ft | 421 kts | 29° |
| 2026-05-04 19:02 | 59.68467 | 16.79033 | 14844 ft | 411 kts | 30° |
| 2026-05-04 19:02 | 59.70782 | 16.82270 | 14144 ft | 403 kts | 31° |
| 2026-05-04 19:02 | 59.73039 | 16.85476 | 13481 ft | 395 kts | 31° |
| 2026-05-04 19:03 | 59.75231 | 16.88634 | 13016 ft | 380 kts | 32° |
| 2026-05-04 19:03 | 59.77327 | 16.91666 | 12619 ft | 364 kts | 31° |
| 2026-05-04 19:03 | 59.79331 | 16.94552 | 12282 ft | 347 kts | 32° |
| 2026-05-04 19:03 | 59.81064 | 16.97778 | 11973 ft | 337 kts | 48° |
| 2026-05-04 19:04 | 59.82269 | 17.01680 | 11611 ft | 329 kts | 65° |
| 2026-05-04 19:04 | 59.82875 | 17.06023 | 11109 ft | 325 kts | 82° |
| 2026-05-04 19:04 | 59.83147 | 17.10460 | 10574 ft | 321 kts | 83° |
| 2026-05-04 19:04 | 59.83380 | 17.14852 | 10060 ft | 317 kts | 83° |
| 2026-05-04 19:05 | 59.83609 | 17.19187 | 9557 ft | 313 kts | 83° |
| 2026-05-04 19:05 | 59.83746 | 17.23488 | 8996 ft | 310 kts | 87° |
| 2026-05-04 19:05 | 59.83822 | 17.27743 | 8437 ft | 307 kts | 88° |
| 2026-05-04 19:05 | 59.83900 | 17.31958 | 7888 ft | 304 kts | 85° |
| 2026-05-04 19:06 | 59.84094 | 17.36127 | 7347 ft | 301 kts | 83° |
| 2026-05-04 19:06 | 59.84316 | 17.40249 | 6839 ft | 297 kts | 83° |
| 2026-05-04 19:06 | 59.84534 | 17.44309 | 6320 ft | 294 kts | 83° |
| 2026-05-04 19:06 | 59.84747 | 17.48348 | 5846 ft | 293 kts | 83° |
| 2026-05-04 19:07 | 59.84952 | 17.52297 | 5679 ft | 284 kts | 83° |
| 2026-05-04 19:07 | 59.85150 | 17.56179 | 5363 ft | 281 kts | 83° |
| 2026-05-04 19:07 | 59.85348 | 17.60052 | 5046 ft | 281 kts | 83° |
| 2026-05-04 19:07 | 59.85546 | 17.63928 | 4695 ft | 280 kts | 83° |
| 2026-05-04 19:08 | 59.85741 | 17.67743 | 4399 ft | 279 kts | 83° |
| 2026-05-04 19:08 | 59.85943 | 17.71569 | 4094 ft | 277 kts | 83° |
| 2026-05-04 19:08 | 59.86146 | 17.75361 | 3789 ft | 275 kts | 83° |
| 2026-05-04 19:08 | 59.86344 | 17.79132 | 3449 ft | 274 kts | 83° |
| 2026-05-04 19:09 | 59.86547 | 17.82896 | 3116 ft | 272 kts | 83° |
| 2026-05-04 19:09 | 59.86750 | 17.86626 | 2800 ft | 272 kts | 83° |
| 2026-05-04 19:09 | 59.86951 | 17.90353 | 2522 ft | 270 kts | 83° |
| 2026-05-04 19:09 | 59.86892 | 17.94038 | 2492 ft | 268 kts | 107° |
| 2026-05-04 19:10 | 59.86007 | 17.97248 | 2504 ft | 265 kts | 137° |
| 2026-05-04 19:10 | 59.84575 | 17.99313 | 2506 ft | 247 kts | 155° |
| 2026-05-04 19:10 | 59.83078 | 18.00882 | 2495 ft | 240 kts | 158° |
| 2026-05-04 19:10 | 59.81613 | 18.02363 | 2492 ft | 234 kts | 158° |
| 2026-05-04 19:11 | 59.80175 | 18.03820 | 2467 ft | 230 kts | 159° |
| 2026-05-04 19:11 | 59.78743 | 18.05171 | 2454 ft | 223 kts | 172° |
| 2026-05-04 19:11 | 59.77282 | 18.05132 | 2458 ft | 202 kts | 208° |
| 2026-05-04 19:11 | 59.76187 | 18.03591 | 2515 ft | 194 kts | 226° |
| 2026-05-04 19:12 | 59.75144 | 18.01823 | 2450 ft | 198 kts | 226° |
| 2026-05-04 19:12 | 59.72872 | 17.99053 | 1821 ft | 180 kts | 204° |
| 2026-05-04 19:12 | 59.71710 | 17.98462 | 1614 ft | 161 kts | 201° |
| 2026-05-04 19:13 | 59.70649 | 17.98028 | 1362 ft | 154 kts | 200° |
| 2026-05-04 19:13 | 59.69611 | 17.97625 | 1145 ft | 151 kts | 198° |
| 2026-05-04 19:13 | 59.68596 | 17.97244 | 946 ft | 146 kts | 196° |
| 2026-05-04 19:13 | 59.67598 | 17.96875 | 735 ft | 144 kts | 194° |
| 2026-05-04 19:14 | 59.66650 | 17.96530 | 555 ft | 138 kts | 194° |
| 2026-05-04 19:14 | 59.65696 | 17.96187 | 329 ft | 140 kts | 193° |
| 2026-05-04 19:14 | 59.64768 | 17.95854 | 115 ft | 131 kts | 194° |
| 2026-05-04 19:14 | 59.64069 | 17.95590 | 112 ft | 68 kts | 191° |
| 2026-05-04 19:15 | 59.63780 | 17.95492 | 114 ft | 35 kts | 191° |
| 2026-05-04 19:15 | 59.63533 | 17.95398 | 118 ft | 36 kts | 196° |
| 2026-05-04 19:15 | 59.63317 | 17.95161 | 123 ft | 33 kts | 221° |
| 2026-05-04 19:15 | 59.63276 | 17.94923 | 122 ft | 19 kts | 337° |
| 2026-05-04 19:16 | 59.63409 | 17.94945 | 120 ft | 20 kts | 9° |
| 2026-05-04 19:16 | 59.63554 | 17.95003 | 115 ft | 22 kts | 12° |
| 2026-05-04 19:16 | 59.63708 | 17.95053 | 111 ft | 21 kts | 8° |
| 2026-05-04 19:16 | 59.63863 | 17.95111 | 109 ft | 26 kts | 11° |
| 2026-05-04 19:17 | 59.63984 | 17.95155 | 108 ft | 27 kts | 10° |
| 2026-05-04 19:17 | 59.64177 | 17.95226 | 106 ft | 28 kts | 10° |
| 2026-05-04 19:17 | 59.64364 | 17.95294 | 105 ft | 27 kts | 11° |
| 2026-05-04 19:17 | 59.64546 | 17.95360 | 104 ft | 27 kts | 11° |
| 2026-05-04 19:18 | 59.64725 | 17.95427 | 105 ft | 25 kts | 11° |
| 2026-05-04 19:18 | 59.64892 | 17.95486 | 107 ft | 23 kts | 10° |
| 2026-05-04 19:18 | 59.65040 | 17.95511 | 113 ft | 19 kts | 353° |
| 2026-05-04 19:18 | 59.65169 | 17.95449 | 119 ft | 18 kts | 345° |
| 2026-05-04 19:19 | 59.65302 | 17.95379 | 123 ft | 20 kts | 345° |
| 2026-05-04 19:19 | 59.65431 | 17.95311 | 126 ft | 19 kts | 345° |
| 2026-05-04 19:19 | 59.65563 | 17.95241 | 127 ft | 20 kts | 345° |
| 2026-05-04 19:19 | 59.65698 | 17.95164 | 128 ft | 20 kts | 339° |
| 2026-05-04 19:20 | 59.65737 | 17.94930 | 124 ft | 20 kts | 257° |
| 2026-05-04 19:20 | 59.65704 | 17.94660 | 120 ft | 20 kts | 256° |
| 2026-05-04 19:20 | 59.65669 | 17.94390 | 124 ft | 20 kts | 256° |
| 2026-05-04 19:20 | 59.65635 | 17.94115 | 121 ft | 23 kts | 256° |
| 2026-05-04 19:21 | 59.65589 | 17.93755 | 113 ft | 29 kts | 256° |
| 2026-05-04 19:21 | 59.65543 | 17.93397 | 109 ft | 24 kts | 256° |
| 2026-05-04 19:21 | 59.65490 | 17.93200 | 111 ft | 14 kts | 193° |
| 2026-05-04 19:21 | 59.65405 | 17.93245 | 111 ft | 11 kts | 154° |
| 2026-05-04 19:22 | 59.65337 | 17.93293 | 111 ft | 11 kts | 165° |
| 2026-05-04 19:22 | 59.65294 | 17.93239 | 110 ft | 6 kts | 252° |
| 2026-05-04 19:22 | 59.65283 | 17.93172 | 111 ft | 0 kts | 252° |